Time;durP1;ratioP1;P1;durP2;ratioP2;P2;SDS_P1;SDS_P2;PMS_P1;PMS_P2;Temp;Humidity;BMP_temperature;BMP_pressure;BME280_temperature;BME280_humidity;BME280_pressure;Samples;Min_cycle;Max_cycle;Signal;HPM_P1;HPM_P2
2022/03/08 00:02:10;;;;;;;23.10;17.17;;;-3.90;99.90;;;;;;5086867;28;20443;-75
2022/03/08 00:04:41;;;;;;;22.17;16.67;;;-3.90;99.90;;;;;;5091517;28;20422;-74
2022/03/08 00:07:10;;;;;;;22.47;16.70;;;-3.90;99.90;;;;;;5090563;28;20487;-75
2022/03/08 00:09:40;;;;;;;22.17;16.23;;;-3.90;99.90;;;;;;5092845;28;20464;-74
2022/03/08 00:12:12;;;;;;;23.13;16.07;;;-3.90;99.90;;;;;;5092480;28;20441;-74
2022/03/08 00:14:41;;;;;;;23.97;16.53;;;-3.90;99.90;;;;;;5084215;28;20448;-74
2022/03/08 00:17:16;;;;;;;21.30;15.77;;;-3.90;99.90;;;;;;5079083;28;20438;-76
2022/03/08 00:19:44;;;;;;;20.73;15.70;;;-3.90;99.90;;;;;;5080092;28;20533;-78
2022/03/08 00:22:12;;;;;;;22.80;16.13;;;-4.00;99.90;;;;;;5075797;28;20488;-75
2022/03/08 00:24:40;;;;;;;20.67;15.60;;;-4.10;99.90;;;;;;5076472;28;20556;-76
2022/03/08 00:27:08;;;;;;;21.90;16.57;;;-4.10;99.90;;;;;;5077959;28;20508;-78
2022/03/08 00:29:36;;;;;;;23.70;17.50;;;-4.10;99.90;;;;;;5083738;28;20460;-77
2022/03/08 00:32:08;;;;;;;24.20;17.23;;;-4.10;99.90;;;;;;5076256;28;20808;-75
2022/03/08 00:34:36;;;;;;;23.63;16.57;;;-4.10;99.90;;;;;;5076043;28;20436;-75
2022/03/08 00:37:05;;;;;;;22.90;16.70;;;-4.10;99.90;;;;;;5075511;28;20475;-77
2022/03/08 00:39:33;;;;;;;22.63;17.57;;;-4.10;99.90;;;;;;5076072;28;20858;-76
2022/03/08 00:42:04;;;;;;;24.93;17.13;;;-4.20;99.90;;;;;;5075736;28;20471;-77
2022/03/08 00:44:32;;;;;;;22.70;16.57;;;-4.10;99.90;;;;;;5075417;28;20475;-75
2022/03/08 00:47:00;;;;;;;23.67;17.27;;;-4.10;99.90;;;;;;5059373;28;20489;-74
2022/03/08 00:49:30;;;;;;;24.47;17.80;;;-4.10;99.90;;;;;;5055817;28;20461;-77
2022/03/08 00:51:58;;;;;;;23.57;17.23;;;-4.10;99.90;;;;;;5058765;28;20495;-74
2022/03/08 00:54:26;;;;;;;24.80;17.30;;;-4.00;99.90;;;;;;5069319;28;20539;-76
2022/03/08 00:56:54;;;;;;;22.87;17.60;;;-3.90;99.90;;;;;;5074967;28;20830;-74
2022/03/08 00:59:22;;;;;;;21.20;16.37;;;-3.90;99.90;;;;;;5075231;28;20452;-75
2022/03/08 01:01:51;;;;;;;24.23;17.20;;;-3.90;99.90;;;;;;5075038;28;20783;-75
2022/03/08 01:04:20;;;;;;;22.90;16.47;;;-3.80;99.90;;;;;;5075358;28;20448;-77
2022/03/08 01:06:49;;;;;;;23.77;17.23;;;-3.80;99.90;;;;;;5075040;28;20460;-75
2022/03/08 01:09:17;;;;;;;21.57;16.33;;;-3.90;99.90;;;;;;5075527;28;20487;-75
2022/03/08 01:11:46;;;;;;;23.40;16.97;;;-3.90;99.90;;;;;;5074764;28;20514;-75
2022/03/08 01:14:14;;;;;;;20.83;16.63;;;-3.80;99.90;;;;;;5075138;28;20480;-75
2022/03/08 01:16:42;;;;;;;23.40;16.80;;;-3.80;99.90;;;;;;5074367;28;20515;-76
2022/03/08 01:19:11;;;;;;;23.90;17.57;;;-3.80;99.90;;;;;;5073927;28;20459;-75
2022/03/08 01:21:39;;;;;;;24.80;17.83;;;-3.80;99.90;;;;;;5074525;28;20812;-75
2022/03/08 01:24:08;;;;;;;24.33;17.70;;;-3.80;99.90;;;;;;5081096;28;20454;-74
2022/03/08 01:26:38;;;;;;;26.00;18.33;;;-3.90;99.90;;;;;;5078014;28;20440;-75
2022/03/08 01:29:06;;;;;;;23.83;17.87;;;-3.90;99.90;;;;;;5073276;28;20495;-76
2022/03/08 01:31:34;;;;;;;23.10;17.43;;;-3.90;99.90;;;;;;5075334;28;20455;-76
2022/03/08 01:34:03;;;;;;;24.07;17.23;;;-4.00;99.90;;;;;;5074672;28;20467;-75
2022/03/08 01:36:31;;;;;;;23.50;17.37;;;-4.00;99.90;;;;;;5074701;28;20461;-74
2022/03/08 01:38:59;;;;;;;22.80;16.83;;;-4.00;99.90;;;;;;5074321;28;20498;-76
2022/03/08 01:41:31;;;;;;;23.27;17.60;;;-4.00;99.90;;;;;;5071749;28;20956;-76
2022/03/08 01:44:00;;;;;;;24.63;18.07;;;-4.00;99.90;;;;;;5066971;28;20454;-78
2022/03/08 01:46:31;;;;;;;25.40;18.50;;;-4.00;99.90;;;;;;5063761;28;20441;-76
2022/03/08 01:48:59;;;;;;;23.40;17.60;;;-4.00;99.90;;;;;;5074399;28;20576;-77
2022/03/08 01:51:28;;;;;;;23.17;17.07;;;-3.90;99.90;;;;;;5074384;28;20460;-77
2022/03/08 01:53:56;;;;;;;24.67;18.13;;;-3.90;99.90;;;;;;5074146;28;20499;-75
2022/03/08 01:56:25;;;;;;;22.43;17.00;;;-4.00;99.90;;;;;;5074401;28;20515;-77
2022/03/08 01:58:54;;;;;;;24.67;17.20;;;-4.00;99.90;;;;;;5073910;28;20865;-77
2022/03/08 02:01:23;;;;;;;22.33;16.93;;;-4.00;99.90;;;;;;5073761;28;20547;-75
2022/03/08 02:03:51;;;;;;;23.13;16.97;;;-4.00;99.90;;;;;;5074290;28;20551;-76
2022/03/08 02:06:19;;;;;;;22.77;17.43;;;-4.00;99.90;;;;;;5073720;28;20506;-79
2022/03/08 02:08:48;;;;;;;23.07;17.87;;;-4.00;99.90;;;;;;5073919;28;20574;-77
2022/03/08 02:11:16;;;;;;;23.93;18.33;;;-4.10;99.90;;;;;;5073643;28;20486;-79
2022/03/08 02:13:45;;;;;;;24.57;18.10;;;-4.10;99.90;;;;;;5073175;28;20530;-74
2022/03/08 02:16:15;;;;;;;24.50;17.73;;;-4.10;99.90;;;;;;5073902;28;20453;-76
2022/03/08 02:18:43;;;;;;;26.70;19.40;;;-4.10;99.90;;;;;;5073195;28;20455;-76
2022/03/08 02:21:12;;;;;;;28.00;19.50;;;-4.10;99.90;;;;;;5073166;28;20983;-76
2022/03/08 02:23:42;;;;;;;26.40;18.27;;;-4.10;99.90;;;;;;5073725;28;20431;-77
2022/03/08 02:26:10;;;;;;;26.10;19.30;;;-4.10;99.90;;;;;;5072899;28;20453;-74
2022/03/08 02:28:42;;;;;;;27.83;19.23;;;-4.10;99.90;;;;;;5072315;28;20516;-77
2022/03/08 02:31:10;;;;;;;27.00;19.00;;;-4.10;99.90;;;;;;5072588;28;20524;-76
2022/03/08 02:33:38;;;;;;;24.57;18.43;;;-4.10;99.90;;;;;;5072580;28;20463;-74
2022/03/08 02:36:07;;;;;;;25.33;19.07;;;-4.10;99.90;;;;;;5072502;28;20538;-78
2022/03/08 02:38:37;;;;;;;25.23;19.20;;;-4.10;99.90;;;;;;5072677;28;20444;-75
2022/03/08 02:41:06;;;;;;;25.87;19.13;;;-4.10;99.90;;;;;;5072521;28;20528;-72
2022/03/08 02:43:34;;;;;;;24.20;18.20;;;-4.10;99.90;;;;;;5072087;28;20551;-78
2022/03/08 02:46:02;;;;;;;27.00;18.67;;;-4.10;99.90;;;;;;5072659;28;20476;-73
2022/03/08 02:48:32;;;;;;;26.23;18.50;;;-4.10;99.90;;;;;;5071956;28;20557;-77
2022/03/08 02:51:01;;;;;;;26.03;18.70;;;-4.10;99.90;;;;;;5072645;28;20472;-76
2022/03/08 02:53:29;;;;;;;25.13;18.30;;;-4.10;99.90;;;;;;5072516;28;20472;-76
2022/03/08 02:56:02;;;;;;;25.33;18.73;;;-4.10;99.90;;;;;;5072555;28;20488;-76
2022/03/08 02:58:34;;;;;;;25.80;19.07;;;-4.10;99.90;;;;;;5072631;28;20839;-78
2022/03/08 03:01:07;;;;;;;27.17;18.20;;;-4.00;99.90;;;;;;5072130;28;20541;-76
2022/03/08 03:03:36;;;;;;;26.13;18.67;;;-4.10;99.90;;;;;;5072205;28;20465;-75
2022/03/08 03:06:04;;;;;;;24.33;18.20;;;-4.00;99.90;;;;;;5074646;28;20484;-77
2022/03/08 03:08:32;;;;;;;24.87;18.00;;;-4.00;99.90;;;;;;5074224;28;20948;-76
2022/03/08 03:11:02;;;;;;;23.00;17.60;;;-4.00;99.90;;;;;;5072282;28;20483;-77
2022/03/08 03:13:30;;;;;;;24.80;18.20;;;-4.00;99.90;;;;;;5071731;28;20877;-73
2022/03/08 03:15:59;;;;;;;24.43;17.10;;;-4.00;99.90;;;;;;5072529;28;20502;-77
2022/03/08 03:18:28;;;;;;;26.07;17.80;;;-4.00;99.90;;;;;;5072456;28;20463;-77
2022/03/08 03:20:56;;;;;;;22.57;16.40;;;-4.00;99.90;;;;;;5072406;28;20488;-78
2022/03/08 03:23:25;;;;;;;23.60;17.43;;;-4.00;99.90;;;;;;5072357;28;20464;-76
2022/03/08 03:26:03;;;;;;;23.83;17.87;;;-4.00;99.90;;;;;;5072250;28;20991;-77
2022/03/08 03:28:31;;;;;;;24.03;17.67;;;-4.00;99.90;;;;;;5071871;28;20481;-77
2022/03/08 03:30:59;;;;;;;22.63;17.07;;;-4.00;99.90;;;;;;5071909;28;20760;-79
2022/03/08 03:33:28;;;;;;;24.60;16.80;;;-4.10;99.90;;;;;;5073154;28;20964;-77
2022/03/08 03:35:56;;;;;;;26.73;17.70;;;-4.00;99.90;;;;;;5074142;28;20506;-75
2022/03/08 03:38:25;;;;;;;25.00;17.03;;;-4.10;99.90;;;;;;5072023;28;20460;-76
2022/03/08 03:40:53;;;;;;;23.87;18.00;;;-4.10;99.90;;;;;;5072166;28;20478;-75
2022/03/08 03:43:23;;;;;;;24.20;17.60;;;-4.10;99.90;;;;;;5059268;28;20482;-76
2022/03/08 03:45:51;;;;;;;25.03;17.07;;;-4.10;99.90;;;;;;5052103;28;20475;-77
2022/03/08 03:48:24;;;;;;;25.77;17.33;;;-4.10;99.90;;;;;;5071574;28;20477;-77
2022/03/08 03:50:52;;;;;;;25.60;17.97;;;-4.10;99.90;;;;;;5071686;28;20450;-77
2022/03/08 03:53:20;;;;;;;24.63;18.17;;;-4.10;99.90;;;;;;5071788;28;20817;-78
2022/03/08 03:55:48;;;;;;;23.53;17.53;;;-4.20;99.90;;;;;;5071910;28;20880;-75
2022/03/08 03:58:16;;;;;;;24.90;18.53;;;-4.20;99.90;;;;;;5071253;28;20451;-77
2022/03/08 04:00:47;;;;;;;22.67;17.20;;;-4.30;99.90;;;;;;5060102;28;20869;-79
2022/03/08 04:03:18;;;;;;;25.67;18.87;;;-4.30;99.90;;;;;;5071818;28;20451;-77
2022/03/08 04:05:47;;;;;;;23.43;17.93;;;-4.30;99.90;;;;;;5071019;28;20933;-78
2022/03/08 04:08:20;;;;;;;25.57;18.57;;;-4.30;99.90;;;;;;5071389;28;20471;-79
2022/03/08 04:10:49;;;;;;;26.30;16.97;;;-4.30;99.90;;;;;;5071015;28;20455;-79
2022/03/08 04:13:18;;;;;;;23.50;17.53;;;-4.30;99.90;;;;;;5071453;28;20505;-77
2022/03/08 04:15:48;;;;;;;23.67;17.50;;;-4.30;99.90;;;;;;5071418;28;20484;-78
2022/03/08 04:18:16;;;;;;;22.57;16.63;;;-4.30;99.90;;;;;;5071491;28;20508;-79
2022/03/08 04:20:44;;;;;;;24.83;17.47;;;-4.30;99.90;;;;;;5071329;28;20494;-79
2022/03/08 04:23:12;;;;;;;24.10;17.20;;;-4.20;99.90;;;;;;5070224;28;20492;-76
2022/03/08 04:25:40;;;;;;;24.33;17.67;;;-4.20;99.90;;;;;;5071633;28;20444;-79
2022/03/08 04:28:08;;;;;;;24.17;17.97;;;-4.20;99.90;;;;;;5071276;28;20483;-78
2022/03/08 04:30:37;;;;;;;26.70;17.43;;;-4.10;99.90;;;;;;5071153;28;20572;-77
2022/03/08 04:33:06;;;;;;;22.43;16.87;;;-4.10;99.90;;;;;;5071228;28;20453;-77
2022/03/08 04:35:35;;;;;;;25.17;16.93;;;-4.00;99.90;;;;;;5070980;28;20458;-78
2022/03/08 04:38:03;;;;;;;22.67;16.30;;;-4.00;99.90;;;;;;5071388;28;20971;-78
2022/03/08 04:40:32;;;;;;;23.57;17.30;;;-4.00;99.90;;;;;;5061502;28;20452;-77
2022/03/08 04:43:00;;;;;;;24.73;17.53;;;-4.00;99.90;;;;;;5053795;28;21039;-79
2022/03/08 04:45:28;;;;;;;21.53;16.20;;;-4.00;99.90;;;;;;5055022;28;20886;-75
2022/03/08 04:48:00;;;;;;;21.20;16.23;;;-3.90;99.90;;;;;;5055235;28;20810;-77
2022/03/08 04:50:29;;;;;;;22.87;16.40;;;-4.00;99.90;;;;;;5055730;28;20522;-78
2022/03/08 04:52:57;;;;;;;23.40;16.87;;;-3.90;99.90;;;;;;5055311;28;21001;-77
2022/03/08 04:55:28;;;;;;;24.33;16.93;;;-3.90;99.90;;;;;;5055223;28;20416;-78
2022/03/08 04:57:56;;;;;;;24.53;17.60;;;-3.90;99.90;;;;;;5054818;28;20458;-76
2022/03/08 05:00:25;;;;;;;25.40;17.30;;;-3.90;99.90;;;;;;5058391;28;20447;-76
2022/03/08 05:02:53;;;;;;;22.43;15.77;;;-3.90;99.90;;;;;;5074486;28;20448;-78
2022/03/08 05:05:22;;;;;;;22.30;15.90;;;-3.90;99.90;;;;;;5074313;28;20462;-76
2022/03/08 05:07:51;;;;;;;22.87;16.43;;;-3.90;99.90;;;;;;5075307;28;20462;-78
2022/03/08 05:10:19;;;;;;;21.77;16.40;;;-3.90;99.90;;;;;;5074355;28;20475;-75
2022/03/08 05:12:50;;;;;;;23.10;16.70;;;-4.00;99.90;;;;;;5074828;28;20450;-78
2022/03/08 05:15:18;;;;;;;22.57;15.60;;;-4.00;99.90;;;;;;5076103;28;20483;-76
2022/03/08 05:17:46;;;;;;;21.30;15.87;;;-4.00;99.90;;;;;;5074597;28;20461;-76
2022/03/08 05:20:14;;;;;;;23.57;15.90;;;-4.00;99.90;;;;;;5074105;28;20868;-75
2022/03/08 05:22:43;;;;;;;23.43;16.17;;;-4.10;99.90;;;;;;5073877;28;21008;-73
2022/03/08 05:25:13;;;;;;;22.97;16.30;;;-4.10;99.90;;;;;;5074821;28;20500;-78
2022/03/08 05:27:43;;;;;;;25.23;16.30;;;-4.00;99.90;;;;;;5074101;28;20448;-76
2022/03/08 05:30:12;;;;;;;21.33;16.43;;;-4.10;99.90;;;;;;5073480;28;21055;-75
2022/03/08 05:32:40;;;;;;;22.63;15.97;;;-4.00;99.90;;;;;;5073585;28;21016;-76
2022/03/08 05:35:11;;;;;;;21.53;16.43;;;-4.00;99.90;;;;;;5068724;28;20565;-74
2022/03/08 05:37:39;;;;;;;22.50;16.30;;;-4.00;99.90;;;;;;5073286;28;20457;-74
2022/03/08 05:40:10;;;;;;;23.63;17.37;;;-3.90;99.90;;;;;;5073826;28;20552;-76
2022/03/08 05:42:40;;;;;;;24.77;17.80;;;-3.90;99.90;;;;;;5073809;28;20821;-77
2022/03/08 05:45:09;;;;;;;25.40;17.03;;;-3.90;99.90;;;;;;5074025;28;20494;-76
2022/03/08 05:47:38;;;;;;;22.67;17.23;;;-3.90;99.90;;;;;;5073586;28;20489;-77
2022/03/08 05:50:09;;;;;;;21.93;16.33;;;-3.90;99.90;;;;;;5073160;28;20524;-77
2022/03/08 05:52:39;;;;;;;23.17;16.20;;;-3.90;99.90;;;;;;5073986;28;20433;-75
2022/03/08 05:55:08;;;;;;;22.07;15.73;;;-3.90;99.90;;;;;;5074391;28;20448;-76
2022/03/08 05:57:36;;;;;;;23.73;17.17;;;-3.90;99.90;;;;;;5076471;28;20527;-73
2022/03/08 06:00:08;;;;;;;22.43;16.60;;;-3.80;99.90;;;;;;5076892;28;20529;-75
2022/03/08 06:02:40;;;;;;;22.63;16.30;;;-3.80;99.90;;;;;;5074732;28;20448;-74
2022/03/08 06:05:09;;;;;;;24.03;15.83;;;-3.80;99.90;;;;;;5073430;28;20454;-75
2022/03/08 06:07:41;;;;;;;23.10;15.73;;;-3.70;99.90;;;;;;5073921;28;20814;-75
2022/03/08 06:10:10;;;;;;;21.13;16.27;;;-3.70;99.90;;;;;;5075176;28;20468;-76
2022/03/08 06:12:41;;;;;;;20.60;15.97;;;-3.60;99.90;;;;;;5072149;28;20938;-78
2022/03/08 06:15:11;;;;;;;22.53;16.10;;;-3.60;99.90;;;;;;5075750;28;20462;-77
2022/03/08 06:17:39;;;;;;;23.33;15.87;;;-3.50;99.90;;;;;;5074440;28;20440;-78
2022/03/08 06:20:09;;;;;;;21.53;16.07;;;-3.50;99.90;;;;;;5074722;28;20456;-75
2022/03/08 06:22:37;;;;;;;22.50;16.47;;;-3.40;99.90;;;;;;5073451;28;20457;-77
2022/03/08 06:25:07;;;;;;;20.03;15.00;;;-3.40;99.90;;;;;;5073320;28;20575;-75
2022/03/08 06:27:36;;;;;;;21.00;15.93;;;-3.40;99.90;;;;;;5073108;28;20544;-76
2022/03/08 06:30:07;;;;;;;26.73;15.87;;;-3.30;99.90;;;;;;5072632;28;20492;-76
2022/03/08 06:32:37;;;;;;;21.90;16.00;;;-3.30;99.90;;;;;;5072602;28;20512;-76
2022/03/08 06:35:06;;;;;;;24.67;16.23;;;-3.20;99.90;;;;;;5068252;28;20482;-77
2022/03/08 06:37:40;;;;;;;22.67;16.70;;;-3.20;99.90;;;;;;5071780;28;20516;-75
2022/03/08 06:40:09;;;;;;;21.90;16.00;;;-3.20;99.90;;;;;;5072480;28;20448;-76
2022/03/08 06:42:37;;;;;;;21.63;16.40;;;-3.10;99.90;;;;;;5072301;28;20662;-75
2022/03/08 06:45:07;;;;;;;22.57;16.57;;;-3.00;99.90;;;;;;5071599;28;20487;-77
2022/03/08 06:47:36;;;;;;;22.80;17.10;;;-3.00;99.90;;;;;;5072984;28;20472;-76
2022/03/08 06:50:06;;;;;;;23.90;16.73;;;-2.80;99.90;;;;;;5072399;28;20502;-76
2022/03/08 06:52:34;;;;;;;20.57;15.60;;;-2.70;99.90;;;;;;5072827;28;20445;-75
2022/03/08 06:55:03;;;;;;;21.67;16.30;;;-2.60;99.90;;;;;;5072420;28;20456;-74
2022/03/08 06:57:31;;;;;;;21.37;15.80;;;-2.50;99.90;;;;;;5072664;28;20456;-75
2022/03/08 07:00:00;;;;;;;20.80;16.10;;;-2.50;99.90;;;;;;5073297;28;20507;-75
2022/03/08 07:02:31;;;;;;;21.83;16.27;;;-2.40;99.90;;;;;;5072272;28;20456;-75
2022/03/08 07:05:02;;;;;;;21.27;16.47;;;-2.30;99.90;;;;;;5071601;28;20515;-75
2022/03/08 07:07:30;;;;;;;20.10;15.13;;;-2.20;99.90;;;;;;5083439;28;20482;-75
2022/03/08 07:09:59;;;;;;;22.10;16.53;;;-2.00;99.80;;;;;;5072596;28;20940;-74
2022/03/08 07:12:27;;;;;;;21.20;15.63;;;-1.80;99.30;;;;;;5072833;28;20454;-75
2022/03/08 07:14:56;;;;;;;21.20;16.07;;;-1.70;98.60;;;;;;5071602;28;20486;-76
2022/03/08 07:17:24;;;;;;;22.10;16.00;;;-1.50;98.50;;;;;;5072101;28;20506;-77
2022/03/08 07:19:52;;;;;;;19.97;15.47;;;-1.40;98.10;;;;;;5076473;28;20542;-76
2022/03/08 07:22:22;;;;;;;19.53;15.07;;;-1.30;97.90;;;;;;5079352;28;20450;-75
2022/03/08 07:24:50;;;;;;;20.13;15.87;;;-1.20;97.60;;;;;;5076185;28;20959;-75
2022/03/08 07:27:20;;;;;;;20.37;15.70;;;-1.10;97.60;;;;;;5074634;28;20462;-75
2022/03/08 07:29:48;;;;;;;20.57;15.53;;;-1.20;97.60;;;;;;5071379;28;20541;-75
2022/03/08 07:32:23;;;;;;;21.27;15.90;;;-1.20;97.90;;;;;;5073423;28;20479;-76
2022/03/08 07:34:51;;;;;;;18.73;15.27;;;-1.00;98.30;;;;;;5072205;28;20876;-77
2022/03/08 07:37:19;;;;;;;19.03;15.17;;;-0.90;98.20;;;;;;5072269;28;20461;-78
2022/03/08 07:39:50;;;;;;;19.93;15.30;;;-0.90;98.40;;;;;;5070890;28;20469;-77
2022/03/08 07:42:18;;;;;;;17.47;14.13;;;-0.90;98.50;;;;;;5070850;28;20458;-77
2022/03/08 07:44:46;;;;;;;19.90;14.73;;;-0.70;98.50;;;;;;5062854;28;20454;-76
2022/03/08 07:47:17;;;;;;;18.47;14.20;;;-0.60;97.60;;;;;;5072319;28;20959;-76
2022/03/08 07:49:46;;;;;;;16.70;14.13;;;-0.50;97.40;;;;;;5072392;28;20484;-77
2022/03/08 07:52:19;;;;;;;16.30;13.20;;;-0.30;97.50;;;;;;5071877;28;20477;-76
2022/03/08 07:54:49;;;;;;;19.67;13.27;;;0.00;97.10;;;;;;5059943;28;20453;-75
2022/03/08 07:57:19;;;;;;;19.30;14.00;;;0.00;96.70;;;;;;5071147;28;20445;-75
2022/03/08 07:59:47;;;;;;;15.97;12.77;;;0.10;96.90;;;;;;5070298;28;20457;-75
2022/03/08 08:02:18;;;;;;;13.23;11.40;;;0.50;96.40;;;;;;5071325;28;20461;-76
2022/03/08 08:04:46;;;;;;;13.97;10.93;;;1.00;95.40;;;;;;5071145;28;20462;-75
2022/03/08 08:07:14;;;;;;;14.07;10.83;;;1.60;93.60;;;;;;5067666;28;20211;-75
2022/03/08 08:09:42;;;;;;;14.07;10.60;;;2.80;91.90;;;;;;5070531;28;20227;-75
2022/03/08 08:12:12;;;;;;;16.03;10.67;;;3.50;89.90;;;;;;5071462;28;20254;-74
2022/03/08 08:14:41;;;;;;;13.03;10.53;;;4.20;87.40;;;;;;5078855;28;20204;-75
2022/03/08 08:17:11;;;;;;;11.93;10.33;;;4.80;84.70;;;;;;5073072;28;20199;-77
2022/03/08 08:19:39;;;;;;;13.13;11.40;;;5.70;80.60;;;;;;5075651;28;20196;-77
2022/03/08 08:22:07;;;;;;;12.07;10.77;;;6.90;76.60;;;;;;5074501;28;20206;-76
2022/03/08 08:24:36;;;;;;;12.00;10.47;;;8.40;71.40;;;;;;5075463;28;20249;-77
2022/03/08 08:27:09;;;;;;;13.60;10.50;;;8.60;68.00;;;;;;5075820;28;20204;-75
2022/03/08 08:29:39;;;;;;;13.77;10.80;;;9.20;64.20;;;;;;5076527;28;20203;-75
2022/03/08 08:32:08;;;;;;;12.27;10.50;;;9.70;61.80;;;;;;5074985;28;20231;-77
2022/03/08 08:34:36;;;;;;;11.73;10.50;;;9.60;61.50;;;;;;5075190;28;20264;-76
2022/03/08 08:37:05;;;;;;;11.53;9.87;;;9.50;61.70;;;;;;5075823;28;20212;-77
2022/03/08 08:39:33;;;;;;;11.03;9.80;;;10.00;59.50;;;;;;5074010;28;20203;-77
2022/03/08 08:42:01;;;;;;;11.97;10.30;;;9.40;60.50;;;;;;5074494;28;20254;-77
2022/03/08 08:44:34;;;;;;;10.93;9.30;;;9.30;62.00;;;;;;5075144;28;20207;-76
2022/03/08 08:47:04;;;;;;;10.83;9.73;;;10.60;58.60;;;;;;5074777;28;20611;-76
2022/03/08 08:49:32;;;;;;;11.37;9.80;;;10.20;58.80;;;;;;5075336;28;20243;-78
2022/03/08 08:52:04;;;;;;;12.03;10.33;;;9.80;59.50;;;;;;5074511;28;20273;-77
2022/03/08 08:54:32;;;;;;;11.50;10.30;;;9.40;60.50;;;;;;5075279;28;20203;-75
2022/03/08 08:57:00;;;;;;;11.57;9.60;;;9.70;61.20;;;;;;5075384;28;20302;-77
2022/03/08 08:59:28;;;;;;;10.90;9.80;;;10.50;59.00;;;;;;5065475;28;20232;-75
2022/03/08 09:01:58;;;;;;;11.70;9.47;;;10.50;58.80;;;;;;5055390;28;20207;-77
2022/03/08 09:04:33;;;;;;;12.10;9.20;;;10.90;58.70;;;;;;5071795;28;20209;-76
2022/03/08 09:07:02;;;;;;;10.10;9.10;;;11.10;58.50;;;;;;5076161;28;20204;-77
2022/03/08 09:09:30;;;;;;;10.20;9.20;;;12.20;56.70;;;;;;5074001;28;20276;-79
2022/03/08 09:11:58;;;;;;;10.70;9.60;;;12.30;56.00;;;;;;5075045;28;20238;-76
2022/03/08 09:14:26;;;;;;;9.20;8.30;;;12.50;55.00;;;;;;5075109;28;20288;-77
2022/03/08 09:16:55;;;;;;;11.47;8.43;;;12.10;55.30;;;;;;5075072;28;20222;-76
2022/03/08 09:19:24;;;;;;;8.80;7.90;;;10.80;56.90;;;;;;5074453;28;20243;-76
2022/03/08 09:21:54;;;;;;;10.73;8.60;;;10.70;56.90;;;;;;5073975;28;20203;-76
2022/03/08 09:24:21;;;;;;;10.93;7.83;;;9.80;58.50;;;;;;5072581;28;20250;-78
2022/03/08 09:26:52;;;;;;;9.50;7.87;;;9.60;59.10;;;;;;5074376;28;20235;-77
2022/03/08 09:29:20;;;;;;;9.00;8.07;;;9.90;59.90;;;;;;5072961;28;20207;-76
2022/03/08 09:31:52;;;;;;;11.60;8.70;;;10.60;57.60;;;;;;5072893;28;20239;-77
2022/03/08 09:34:22;;;;;;;11.07;7.90;;;10.40;58.70;;;;;;5074393;28;20699;-77
2022/03/08 09:36:50;;;;;;;10.87;7.47;;;11.10;57.00;;;;;;5073869;28;20216;-76
2022/03/08 09:39:20;;;;;;;7.47;6.67;;;11.10;56.80;;;;;;5073595;28;20257;-76
2022/03/08 09:41:53;;;;;;;8.20;6.93;;;12.00;55.10;;;;;;5073923;28;20535;-78
2022/03/08 09:44:21;;;;;;;8.00;6.97;;;11.80;54.40;;;;;;5073707;28;20195;-77
2022/03/08 09:46:50;;;;;;;9.77;6.63;;;12.30;53.80;;;;;;5073621;28;20212;-76
2022/03/08 09:49:18;;;;;;;10.27;6.70;;;12.00;53.30;;;;;;5074094;28;20204;-76
2022/03/08 09:51:49;;;;;;;8.10;6.40;;;11.50;54.30;;;;;;5074205;28;20301;-76
2022/03/08 09:54:20;;;;;;;15.23;6.23;;;11.50;54.20;;;;;;5073473;28;20673;-75
2022/03/08 09:56:48;;;;;;;7.93;6.43;;;10.60;54.80;;;;;;5073059;28;20211;-78
2022/03/08 09:59:17;;;;;;;8.47;6.73;;;10.90;54.80;;;;;;5071225;28;20239;-78
2022/03/08 10:01:46;;;;;;;7.83;6.53;;;11.50;54.50;;;;;;5069296;28;20219;-77
2022/03/08 10:04:17;;;;;;;7.60;5.90;;;12.40;54.40;;;;;;5064335;28;20196;-78
2022/03/08 10:07:14;;;;;;;7.73;5.33;;;11.80;52.30;;;;;;5073255;28;20203;-78
2022/03/08 10:09:56;;;;;;;8.00;5.10;;;11.80;51.90;;;;;;5073733;28;20243;-77
2022/03/08 10:12:25;;;;;;;8.07;5.80;;;12.30;51.20;;;;;;5072299;28;20291;-78
2022/03/08 10:14:55;;;;;;;6.57;5.40;;;12.20;51.50;;;;;;5072820;28;20224;-74
2022/03/08 10:17:37;;;;;;;9.43;5.80;;;11.30;49.80;;;;;;5073063;28;20299;-78
2022/03/08 10:20:08;;;;;;;8.87;5.93;;;11.00;51.30;;;;;;5072776;28;20249;-78
2022/03/08 10:22:39;;;;;;;7.73;5.17;;;11.00;51.40;;;;;;5072096;28;20238;-78
2022/03/08 10:25:15;;;;;;;7.30;5.93;;;9.80;53.10;;;;;;5072905;28;20220;-77
2022/03/08 10:27:59;;;;;;;7.07;5.70;;;9.00;54.50;;;;;;5072979;28;20207;-78
2022/03/08 10:30:33;;;;;;;8.63;5.77;;;10.00;53.50;;;;;;5073526;28;20223;-77
2022/03/08 10:33:04;;;;;;;7.47;5.80;;;10.60;51.60;;;;;;5073645;28;20306;-77
2022/03/08 10:35:37;;;;;;;7.23;5.40;;;10.60;50.50;;;;;;5080247;28;20257;-77
2022/03/08 10:38:08;;;;;;;7.47;5.00;;;10.20;52.20;;;;;;5080023;28;20306;-76
2022/03/08 10:40:37;;;;;;;6.97;5.33;;;10.50;51.10;;;;;;5078287;28;20191;-77
2022/03/08 10:43:13;;;;;;;6.93;5.50;;;10.40;51.10;;;;;;5077819;28;20261;-75
2022/03/08 10:45:43;;;;;;;5.33;4.73;;;10.90;50.00;;;;;;5074956;28;20215;-77
2022/03/08 10:48:14;;;;;;;9.47;5.00;;;9.70;50.70;;;;;;5075458;28;20212;-76
2022/03/08 10:50:44;;;;;;;6.93;4.97;;;9.70;51.30;;;;;;5076251;28;20195;-77
2022/03/08 10:53:13;;;;;;;9.07;5.00;;;9.90;50.90;;;;;;5074929;28;20278;-77
2022/03/08 10:55:49;;;;;;;6.53;4.70;;;10.00;49.90;;;;;;5072824;28;20258;-75
2022/03/08 10:58:20;;;;;;;5.97;4.90;;;9.70;51.10;;;;;;5071885;28;20265;-75
2022/03/08 11:00:53;;;;;;;8.60;4.90;;;9.50;51.20;;;;;;5072365;28;20254;-78
2022/03/08 11:03:23;;;;;;;6.50;4.70;;;10.20;50.30;;;;;;5072618;28;20818;-79
2022/03/08 11:05:53;;;;;;;6.43;4.80;;;10.90;49.20;;;;;;5073133;28;20795;-77
2022/03/08 11:08:27;;;;;;;7.13;5.17;;;10.50;48.90;;;;;;5072559;28;20234;-77
2022/03/08 11:10:57;;;;;;;6.57;5.30;;;9.80;50.50;;;;;;5072607;28;20188;-77
2022/03/08 11:13:39;;;;;;;7.33;4.93;;;10.40;52.10;;;;;;5072796;28;20216;-74
2022/03/08 11:16:08;;;;;;;8.37;4.60;;;11.10;50.80;;;;;;5072655;28;20242;-77
2022/03/08 11:18:38;;;;;;;6.73;4.53;;;10.90;48.90;;;;;;5072690;28;20295;-78
2022/03/08 11:21:08;;;;;;;8.13;4.83;;;10.40;49.80;;;;;;5071988;28;20243;-75
2022/03/08 11:23:37;;;;;;;7.13;5.17;;;9.00;51.60;;;;;;5072377;28;20227;-78
2022/03/08 11:26:14;;;;;;;5.60;4.13;;;9.10;53.80;;;;;;5072279;28;20188;-78
2022/03/08 11:28:49;;;;;;;7.10;4.80;;;10.00;51.80;;;;;;5072409;28;20261;-78
2022/03/08 11:31:20;;;;;;;9.23;5.07;;;10.30;50.50;;;;;;5071851;28;20294;-78
2022/03/08 11:33:59;;;;;;;5.67;4.53;;;10.70;50.70;;;;;;5072583;28;20307;-76
2022/03/08 11:36:33;;;;;;;7.50;4.50;;;9.80;51.70;;;;;;5073127;28;20280;-76
2022/03/08 11:39:12;;;;;;;5.50;4.10;;;10.70;50.40;;;;;;5072882;28;20219;-77
2022/03/08 11:42:23;;;;;;;6.47;4.00;;;10.70;49.80;;;;;;5072260;28;20191;-77
2022/03/08 11:44:57;;;;;;;6.13;3.90;;;11.00;48.60;;;;;;5072514;28;20709;-76
2022/03/08 11:47:38;;;;;;;9.23;4.80;;;11.20;48.80;;;;;;5072499;28;20662;-77
2022/03/08 11:50:17;;;;;;;6.07;4.50;;;10.10;50.20;;;;;;5072339;28;20192;-77
2022/03/08 11:52:53;;;;;;;5.57;4.43;;;10.50;50.30;;;;;;5071542;28;20219;-78
2022/03/08 11:55:26;;;;;;;8.27;5.33;;;10.70;49.00;;;;;;5072118;28;20286;-77
2022/03/08 11:58:01;;;;;;;5.63;4.53;;;10.30;50.70;;;;;;5072078;28;20276;-76
2022/03/08 12:00:42;;;;;;;6.97;4.70;;;10.10;50.30;;;;;;5071881;28;20663;-80
2022/03/08 12:03:16;;;;;;;6.70;5.10;;;10.20;51.70;;;;;;5071994;28;20188;-77
2022/03/08 12:05:59;;;;;;;5.90;4.77;;;9.20;52.60;;;;;;5072108;28;20202;-78
2022/03/08 12:09:07;;;;;;;7.83;5.17;;;8.70;52.90;;;;;;5071757;28;20350;-77
2022/03/08 12:11:52;;;;;;;6.47;4.60;;;8.20;53.80;;;;;;5071765;28;20227;-77
2022/03/08 12:14:30;;;;;;;6.77;4.77;;;7.60;55.90;;;;;;5071672;28;20288;-76
2022/03/08 12:17:10;;;;;;;7.40;4.93;;;7.40;55.00;;;;;;5071936;28;20191;-77
2022/03/08 12:19:40;;;;;;;6.90;4.70;;;7.40;56.10;;;;;;5072352;28;20278;-76
2022/03/08 12:22:17;;;;;;;8.13;4.57;;;7.30;56.60;;;;;;5072003;28;20295;-77
2022/03/08 12:24:50;;;;;;;9.20;4.93;;;7.50;56.90;;;;;;5072403;28;20196;-77
2022/03/08 12:27:19;;;;;;;6.53;4.73;;;7.90;57.20;;;;;;5072543;28;20575;-78
2022/03/08 12:30:02;;;;;;;7.30;5.53;;;8.00;56.10;;;;;;5072081;28;20614;-74
2022/03/08 12:32:36;;;;;;;7.30;5.03;;;7.70;54.40;;;;;;5071900;28;20590;-76
2022/03/08 12:35:08;;;;;;;7.93;5.97;;;7.70;53.70;;;;;;5071846;28;20289;-74
2022/03/08 12:37:46;;;;;;;8.73;6.17;;;7.20;54.30;;;;;;5072104;28;20707;-76
2022/03/08 12:40:32;;;;;;;8.63;6.10;;;6.80;55.30;;;;;;5073229;28;20215;-75
2022/03/08 12:43:06;;;;;;;10.93;6.23;;;7.00;56.40;;;;;;5077070;28;20220;-75
2022/03/08 12:45:43;;;;;;;7.90;5.70;;;6.80;56.80;;;;;;5072205;28;20192;-77
2022/03/08 12:48:14;;;;;;;8.03;6.20;;;7.00;57.80;;;;;;5072487;28;20591;-76
2022/03/08 12:50:44;;;;;;;7.47;5.97;;;7.30;57.70;;;;;;5071773;28;20195;-75